Date,TemperatureHighF,TemperatureAvgF,TemperatureLowF,DewpointHighF,DewpointAvgF,DewpointLowF,HumidityHigh,HumidityAvg,HumidityLow,PressureMaxIn,PressureMinIn,WindSpeedMaxMPH,WindSpeedAvgMPH,GustSpeedMaxMPH,PrecipitationSumIn
2013-5-1,64.4,50.7,38.1,44.3,37.4,31.3,93,65,29,30.31,30.15,7,2,7,0.00
2013-5-2,66.7,52.3,36.4,37.1,30.6,18.2,84,49,19,30.22,30.15,12,2,12,0.00
2013-5-3,69.9,53.8,35.7,46.4,40.1,33.9,96,64,32,30.18,30.03,8,2,8,0.00
2013-5-4,63.4,54.3,45.3,51.7,43.0,37.3,88,68,40,30.13,29.97,13,3,13,0.02
2013-5-5,67.5,56.5,41.2,52.7,47.4,38.8,94,73,53,30.19,30.13,6,1,6,0.00
2013-5-6,74.4,61.3,49.5,53.4,48.8,44.1,91,66,41,30.17,30.04,5,1,5,0.00
2013-5-7,75.3,59.9,42.9,52.2,46.1,41.3,97,64,36,30.08,29.85,10,1,10,0.00
2013-5-8,64.9,56.7,48.8,55.8,50.5,45.1,95,80,61,29.85,29.69,8,2,8,0.04
2013-5-9,59.9,51.4,43.2,49.1,44.1,39.8,93,77,51,29.83,29.67,15,4,15,0.06
2013-5-10,64.3,54.9,48.4,50.8,47.2,43.3,90,76,49,29.93,29.68,14,4,14,0.01
2013-5-11,56.7,49.8,43.0,50.9,44.2,39.7,97,82,58,29.92,29.79,18,3,18,0.17
2013-5-12,61.7,50.4,41.1,51.0,43.9,38.8,94,80,45,30.01,29.90,12,3,12,0.02
2013-5-13,60.9,53.4,47.3,51.0,43.6,37.2,96,71,44,29.91,29.80,13,4,13,0.06
2013-5-14,54.1,48.4,44.7,48.0,43.7,39.8,96,84,61,29.82,29.22,13,2,13,0.31
2013-5-15,60.2,48.5,42.2,45.0,41.3,38.0,93,77,52,29.55,29.15,15,3,15,0.06
2013-5-16,63.2,49.9,35.0,48.5,40.4,34.2,99,73,39,29.56,29.47,5,0,5,0.00
2013-5-17,55.1,48.7,38.8,46.5,43.1,37.3,98,82,68,29.81,29.56,7,1,7,0.00
2013-5-18,62.0,53.4,47.1,47.2,45.0,42.7,87,74,56,29.80,29.71,8,1,8,0.00
2013-5-19,68.8,55.9,43.9,51.8,47.6,42.3,97,76,50,29.89,29.77,7,1,7,0.00
2013-5-20,63.0,57.6,51.7,58.0,53.9,48.9,93,88,82,29.90,29.83,8,2,8,0.02
2013-5-21,61.4,56.4,50.5,56.9,51.3,46.9,92,83,67,30.07,29.89,8,2,8,0.00
2013-5-22,59.6,52.9,46.6,48.8,45.1,36.5,91,75,52,30.09,30.01,12,2,12,0.00
2013-5-23,55.1,47.6,42.2,42.9,37.6,32.6,82,69,50,30.01,29.88,13,3,13,0.00
2013-5-24,49.5,44.5,42.1,47.5,40.9,37.3,94,87,80,30.02,29.62,12,4,12,0.26
2013-5-25,61.4,50.7,40.5,45.7,41.2,38.6,96,73,45,30.16,30.02,8,2,8,0.00
2013-5-26,69.7,55.8,39.0,45.0,40.8,36.0,97,61,34,30.13,29.96,9,2,9,0.00
2013-5-27,66.3,54.7,40.4,46.7,41.4,36.6,89,63,36,29.96,29.62,12,2,12,0.00
2013-5-28,54.5,51.1,48.3,52.4,48.3,42.6,97,91,69,29.62,29.48,2,0,2,0.77
2013-5-29,57.5,51.2,44.4,52.8,48.7,43.3,97,91,74,29.76,29.56,8,1,8,0.02
2013-5-30,61.3,54.7,51.9,55.4,51.8,49.9,98,90,77,29.99,29.74,8,2,8,0.17
2013-5-31,73.7,60.9,52.0,58.1,52.7,48.6,91,76,52,30.11,29.99,10,2,10,0.00